createdAt,value
2022-08-24T00:02:18.625Z,20.63
2022-08-24T00:07:27.656Z,23.63
2022-08-24T00:12:31.167Z,22.27
2022-08-24T00:17:33.806Z,22.15
2022-08-24T00:22:35.932Z,23.17
2022-08-24T00:27:39.518Z,22.33
2022-08-24T00:32:42.727Z,20.77
2022-08-24T00:37:45.701Z,22.60
2022-08-24T00:42:48.050Z,23.75
2022-08-24T00:47:55.135Z,24.73
2022-08-24T00:53:00.739Z,23.35
2022-08-24T00:58:08.076Z,22.45
2022-08-24T01:03:14.190Z,23.92
2022-08-24T01:08:17.149Z,22.02
2022-08-24T01:13:19.385Z,23.15
2022-08-24T01:18:43.755Z,20.77
2022-08-24T01:23:49.381Z,24.00
2022-08-24T01:28:56.211Z,22.88
2022-08-24T01:33:59.074Z,24.02
2022-08-24T01:39:10.340Z,24.42
2022-08-24T01:44:12.243Z,22.13
2022-08-24T01:49:14.281Z,22.35
2022-08-24T01:54:16.177Z,23.10
2022-08-24T01:59:19.516Z,24.90
2022-08-24T02:04:21.257Z,25.48
2022-08-24T02:09:22.931Z,22.60
2022-08-24T02:14:30.644Z,22.30
2022-08-24T02:19:35.340Z,23.20
2022-08-24T02:24:37.595Z,22.92
2022-08-24T02:29:39.225Z,23.52
2022-08-24T02:34:41.248Z,23.75
2022-08-24T02:39:42.885Z,23.60
2022-08-24T02:44:44.577Z,22.30
2022-08-24T02:49:46.211Z,22.45
2022-08-24T02:54:47.936Z,22.30
2022-08-24T02:59:49.530Z,23.83
2022-08-24T03:04:51.107Z,22.77
2022-08-24T03:09:52.683Z,22.65
2022-08-24T03:14:55.096Z,23.58
2022-08-24T03:19:57.440Z,21.50
2022-08-24T03:24:59.133Z,21.30
2022-08-24T03:30:01.392Z,21.65
2022-08-24T03:35:04.549Z,20.45
2022-08-24T03:40:07.831Z,18.95
2022-08-24T03:45:24.166Z,20.53
2022-08-24T03:50:27.177Z,20.38
2022-08-24T03:55:28.750Z,22.02
2022-08-24T04:00:30.387Z,20.33
2022-08-24T04:05:34.909Z,21.30
2022-08-24T04:10:38.347Z,20.40
2022-08-24T04:15:41.716Z,20.50
2022-08-24T04:20:43.665Z,21.63
2022-08-24T04:25:48.025Z,19.48
2022-08-24T04:30:50.844Z,19.63
2022-08-24T04:35:52.636Z,19.65
2022-08-24T04:40:54.223Z,19.70
2022-08-24T04:45:55.866Z,19.55
2022-08-24T04:51:03.008Z,19.23
2022-08-24T04:56:09.439Z,16.55
2022-08-24T05:01:16.774Z,16.35
2022-08-24T05:06:20.372Z,16.17
2022-08-24T05:11:23.141Z,18.00
2022-08-24T05:16:26.456Z,17.30
2022-08-24T05:21:28.493Z,16.10
2022-08-24T05:26:31.149Z,17.13
2022-08-24T05:31:33.492Z,17.40
2022-08-24T05:36:38.426Z,16.75
2022-08-24T05:41:44.358Z,17.52
2022-08-24T05:46:46.643Z,17.17
2022-08-24T05:51:48.280Z,18.80
2022-08-24T05:56:50.216Z,16.42
2022-08-24T06:01:53.465Z,18.67
2022-08-24T06:06:55.431Z,18.85
2022-08-24T06:11:57.061Z,17.80
2022-08-24T06:16:58.736Z,16.88
2022-08-24T06:22:01.536Z,17.08
2022-08-24T06:27:21.359Z,17.13
2022-08-24T06:32:23.669Z,18.35
2022-08-24T06:37:29.165Z,18.55
2022-08-24T06:42:31.731Z,19.00
2022-08-24T06:47:33.327Z,16.92
2022-08-24T06:52:36.156Z,17.85
2022-08-24T06:57:37.742Z,17.52
2022-08-24T07:02:39.367Z,17.13
2022-08-24T07:07:40.982Z,18.55
2022-08-24T07:12:42.592Z,17.80
2022-08-24T07:17:44.204Z,16.33
2022-08-24T07:22:45.935Z,16.35
2022-08-24T07:27:47.991Z,16.52
2022-08-24T07:32:49.916Z,15.15
2022-08-24T07:37:58.617Z,13.75
2022-08-24T07:43:00.235Z,14.25
2022-08-24T07:53:13.855Z,13.43
2022-08-24T07:58:16.566Z,14.85
2022-08-24T08:03:18.397Z,15.10
2022-08-24T08:08:20.316Z,12.70
2022-08-24T08:13:21.904Z,14.95
2022-08-24T08:18:23.571Z,14.60
2022-08-24T08:23:43.935Z,13.43
2022-08-24T08:28:49.863Z,15.90
2022-08-24T08:33:51.451Z,15.73
2022-08-24T08:38:53.429Z,14.50
2022-08-24T08:44:21.705Z,15.27
2022-08-24T08:54:44.913Z,14.00
2022-08-24T09:00:15.697Z,15.10
2022-08-24T09:05:17.556Z,15.70
2022-08-24T09:10:25.013Z,14.18
2022-08-24T09:15:55.927Z,15.10
2022-08-24T09:21:28.669Z,13.13
2022-08-24T09:26:48.363Z,14.98
2022-08-24T09:32:03.497Z,14.55
2022-08-24T09:37:27.451Z,16.13
2022-08-24T09:43:10.948Z,14.35
2022-08-24T09:48:32.110Z,14.10
2022-08-24T09:53:39.673Z,15.50
2022-08-24T09:59:10.306Z,16.50
2022-08-24T10:04:37.215Z,16.00
2022-08-24T10:10:02.751Z,14.95
2022-08-24T10:15:12.096Z,16.02
2022-08-24T10:20:25.652Z,16.15
2022-08-24T10:25:30.815Z,16.80
2022-08-24T10:30:44.598Z,15.25
2022-08-24T10:35:49.063Z,15.60
2022-08-24T10:41:26.193Z,15.50
2022-08-24T10:46:39.536Z,14.30
2022-08-24T10:52:12.331Z,14.00
2022-08-24T10:57:31.192Z,15.23
2022-08-24T11:02:38.313Z,16.13
2022-08-24T11:08:02.705Z,15.05
2022-08-24T11:13:27.364Z,15.48
2022-08-24T11:18:46.567Z,16.00
2022-08-24T11:23:48.332Z,15.50
2022-08-24T11:28:58.969Z,14.52
2022-08-24T11:34:08.220Z,12.20
2022-08-24T11:39:22.011Z,13.88
2022-08-24T11:44:38.766Z,15.52
2022-08-24T11:50:03.067Z,15.35
2022-08-24T11:55:47.304Z,16.42
2022-08-24T12:00:56.160Z,13.68
2022-08-24T12:06:32.332Z,13.02
2022-08-24T12:11:43.093Z,12.77
2022-08-24T12:16:55.393Z,13.30
2022-08-24T12:22:00.798Z,13.18
2022-08-24T12:27:10.748Z,11.98
2022-08-24T12:32:19.052Z,12.50
2022-08-24T12:37:32.985Z,12.88
2022-08-24T12:42:52.020Z,12.45
2022-08-24T12:48:06.152Z,12.40
2022-08-24T12:53:30.285Z,13.23
2022-08-24T12:58:54.379Z,13.20
2022-08-24T13:04:41.906Z,11.98
2022-08-24T13:09:57.113Z,11.73
2022-08-24T13:15:24.685Z,14.15
2022-08-24T13:20:29.431Z,14.40
2022-08-24T13:25:51.995Z,12.20
2022-08-24T13:30:56.438Z,11.95
2022-08-24T13:36:03.047Z,10.82
2022-08-24T13:41:23.379Z,12.07
2022-08-24T13:46:40.258Z,10.57
2022-08-24T13:51:51.793Z,9.88
2022-08-24T13:57:35.639Z,11.73
2022-08-24T14:03:08.619Z,9.75
2022-08-24T14:08:41.108Z,10.90
2022-08-24T14:13:49.494Z,10.60
2022-08-24T14:19:08.167Z,10.70
2022-08-24T14:24:23.061Z,10.35
2022-08-24T14:29:40.703Z,10.30
2022-08-24T14:35:05.514Z,10.38
2022-08-24T14:40:29.736Z,10.23
2022-08-24T14:45:58.421Z,10.88
2022-08-24T14:51:40.817Z,9.98
2022-08-24T14:57:17.977Z,10.48
2022-08-24T15:02:31.713Z,11.37
2022-08-24T15:07:36.818Z,10.77
2022-08-24T15:12:42.783Z,11.13
2022-08-24T15:18:06.437Z,11.48
2022-08-24T15:23:19.813Z,11.52
2022-08-24T15:28:26.515Z,10.98
2022-08-24T15:33:30.750Z,11.80
2022-08-24T15:38:35.508Z,11.20
2022-08-24T15:43:43.957Z,11.00
2022-08-24T15:48:48.166Z,9.98
2022-08-24T15:53:49.941Z,10.52
2022-08-24T15:58:52.493Z,11.77
2022-08-24T16:03:57.387Z,11.30
2022-08-24T16:09:01.265Z,11.20
2022-08-24T16:14:03.690Z,10.85
2022-08-24T16:19:18.060Z,11.23
2022-08-24T16:24:19.588Z,10.25
2022-08-24T16:29:37.014Z,10.75
2022-08-24T16:34:42.356Z,10.80
2022-08-24T16:39:44.248Z,10.32
2022-08-24T16:44:46.054Z,10.63
2022-08-24T16:49:48.583Z,11.30
2022-08-24T16:54:50.899Z,9.50
2022-08-24T16:59:53.094Z,9.73
2022-08-24T17:04:54.923Z,10.48
2022-08-24T17:09:57.786Z,10.63
2022-08-24T17:14:59.465Z,10.48
2022-08-24T17:20:01.720Z,11.13
2022-08-24T17:25:04.560Z,10.88
2022-08-24T17:30:06.732Z,11.13
2022-08-24T17:35:08.622Z,11.45
2022-08-24T17:40:13.766Z,10.82
2022-08-24T17:45:15.741Z,11.50
2022-08-24T17:50:19.322Z,11.48
2022-08-24T17:55:25.035Z,10.77
2022-08-24T18:00:27.091Z,13.23
2022-08-24T18:05:32.508Z,12.38
2022-08-24T18:10:34.611Z,11.68
2022-08-24T18:15:36.660Z,11.73
2022-08-24T18:20:41.616Z,13.70
2022-08-24T18:25:47.660Z,13.40
2022-08-24T18:30:49.612Z,12.57
2022-08-24T18:35:51.273Z,12.40
2022-08-24T18:40:53.223Z,13.05
2022-08-24T18:45:55.038Z,12.85
2022-08-24T18:50:57.561Z,12.93
2022-08-24T18:56:08.105Z,13.45
2022-08-24T19:01:13.857Z,13.52
2022-08-24T19:06:15.537Z,13.60
2022-08-24T19:11:21.093Z,14.77
2022-08-24T19:16:22.710Z,14.60
2022-08-24T19:21:26.624Z,14.48
2022-08-24T19:26:29.212Z,14.32
2022-08-24T19:31:33.544Z,13.70
2022-08-24T19:36:35.191Z,13.85
2022-08-24T19:41:43.270Z,13.45
2022-08-24T19:46:48.386Z,15.05
2022-08-24T19:51:51.039Z,14.20
2022-08-24T19:56:53.907Z,15.77
2022-08-24T20:01:55.549Z,13.90
2022-08-24T20:06:57.875Z,15.63
2022-08-24T20:11:59.552Z,14.05
2022-08-24T20:17:01.443Z,15.20
2022-08-24T20:22:03.162Z,14.95
2022-08-24T20:27:19.254Z,15.40
2022-08-24T20:32:21.344Z,15.38
2022-08-24T20:37:27.031Z,14.90
2022-08-24T20:42:31.622Z,16.05
2022-08-24T20:47:33.293Z,15.65
2022-08-24T20:52:34.914Z,15.57
2022-08-24T20:57:36.873Z,16.67
2022-08-24T21:02:38.470Z,15.80
2022-08-24T21:07:46.092Z,16.67
2022-08-24T21:12:48.833Z,18.07
2022-08-24T21:17:50.810Z,16.67
2022-08-24T21:22:52.401Z,18.48
2022-08-24T21:27:54.412Z,17.52
2022-08-24T21:33:14.554Z,19.20
2022-08-24T21:38:16.138Z,18.33
2022-08-24T21:43:20.251Z,18.00
2022-08-24T21:48:21.988Z,19.65
2022-08-24T21:53:23.547Z,17.67
2022-08-24T21:58:30.158Z,17.92
2022-08-24T22:03:40.161Z,18.50
2022-08-24T22:08:43.451Z,18.20
2022-08-24T22:13:45.590Z,17.48
2022-08-24T22:18:48.019Z,19.48
2022-08-24T22:23:49.965Z,18.17
2022-08-24T22:28:51.589Z,16.23
2022-08-24T22:33:55.145Z,16.30
2022-08-24T22:38:58.463Z,18.65
2022-08-24T22:44:18.593Z,17.10
2022-08-24T22:49:23.841Z,16.58
2022-08-24T22:54:25.687Z,16.38
2022-08-24T22:59:35.645Z,15.85
2022-08-24T23:04:41.246Z,17.27
2022-08-24T23:09:45.190Z,15.90
2022-08-24T23:14:47.731Z,15.93
2022-08-24T23:20:04.949Z,16.75
2022-08-24T23:25:12.789Z,16.50
2022-08-24T23:30:14.736Z,16.77
2022-08-24T23:35:16.501Z,15.77
2022-08-24T23:40:19.111Z,18.35
2022-08-24T23:45:28.466Z,18.23
2022-08-24T23:50:33.662Z,18.58
2022-08-24T23:55:35.291Z,18.25
